createdAt,value
2023-04-23T00:02:23.765Z,96694.47
2023-04-23T00:04:54.279Z,96690.16
2023-04-23T00:07:24.580Z,96689.53
2023-04-23T00:09:54.194Z,96694.97
2023-04-23T00:12:22.638Z,96683.59
2023-04-23T00:14:50.967Z,96679.88
2023-04-23T00:17:19.803Z,96693.28
2023-04-23T00:19:48.374Z,96697.69
2023-04-23T00:22:17.202Z,96694.13
2023-04-23T00:24:46.491Z,96687.41
2023-04-23T00:27:14.458Z,96689.91
2023-04-23T00:29:43.436Z,96687.41
2023-04-23T00:32:11.331Z,96682.13
2023-04-23T00:34:39.567Z,96683.34
2023-04-23T00:37:08.068Z,96691.97
2023-04-23T00:39:37.705Z,96692.09
2023-04-23T00:42:12.526Z,96692.09
2023-04-23T00:44:41.781Z,96683.22
2023-04-23T00:47:10.705Z,96682.63
2023-04-23T00:49:39.344Z,96683.22
2023-04-23T00:52:07.336Z,96668.63
2023-04-23T00:54:35.326Z,96693.75
2023-04-23T00:57:03.743Z,96692.09
2023-04-23T00:59:32.987Z,96685.13
2023-04-23T01:02:01.132Z,96682.72
2023-04-23T01:04:29.792Z,96679.97
2023-04-23T01:06:58.213Z,96685.13
2023-04-23T01:09:27.690Z,96677.34
2023-04-23T01:11:55.606Z,96659.53
2023-04-23T01:14:24.045Z,96681.19
2023-04-23T01:16:53.485Z,96678.44
2023-04-23T01:19:21.373Z,96681.88
2023-04-23T01:21:51.226Z,96680.34
2023-04-23T01:24:20.421Z,96677.47
2023-04-23T01:26:48.485Z,96687.03
2023-04-23T01:29:16.684Z,96694.00
2023-04-23T01:31:44.814Z,96694.25
2023-04-23T01:34:12.916Z,96692.41
2023-04-23T01:36:41.841Z,96693.25
2023-04-23T01:39:10.192Z,96697.00
2023-04-23T01:41:40.097Z,96698.78
2023-04-23T01:44:08.350Z,96703.09
2023-04-23T01:46:36.372Z,96700.56
2023-04-23T01:49:04.443Z,96701.63
2023-04-23T01:51:32.656Z,96703.31
2023-04-23T01:54:00.509Z,96711.22
2023-04-23T01:56:30.811Z,96708.59
2023-04-23T01:59:00.033Z,96707.63
2023-04-23T02:01:28.163Z,96715.53
2023-04-23T02:03:56.308Z,96718.91
2023-04-23T02:06:24.410Z,96720.56
2023-04-23T02:08:52.798Z,96707.63
2023-04-23T02:11:20.790Z,96706.06
2023-04-23T02:13:48.525Z,96709.44
2023-04-23T02:16:18.465Z,96704.06
2023-04-23T02:18:46.577Z,96708.09
2023-04-23T02:21:14.653Z,96701.78
2023-04-23T02:23:42.530Z,96705.25
2023-04-23T02:26:10.476Z,96710.50
2023-04-23T02:28:38.909Z,96707.03
2023-04-23T02:31:06.964Z,96707.00
2023-04-23T02:33:36.110Z,96716.47
2023-04-23T02:36:03.978Z,96722.59
2023-04-23T02:38:31.746Z,96728.81
2023-04-23T02:40:59.500Z,96717.69
2023-04-23T02:43:27.412Z,96724.13
2023-04-23T02:45:55.247Z,96715.66
2023-04-23T02:48:22.992Z,96718.84
2023-04-23T02:50:52.414Z,96719.69
2023-04-23T02:53:20.248Z,96717.38
2023-04-23T02:55:48.006Z,96720.16
2023-04-23T02:58:16.083Z,96720.38
2023-04-23T03:00:43.937Z,96720.47
2023-04-23T03:03:12.807Z,96721.31
2023-04-23T03:05:40.757Z,96717.84
2023-04-23T03:08:09.994Z,96723.84
2023-04-23T03:10:37.812Z,96726.47
2023-04-23T03:13:05.655Z,96721.22
2023-04-23T03:15:33.437Z,96729.31
2023-04-23T03:18:01.471Z,96733.63
2023-04-23T03:20:29.420Z,96726.94
2023-04-23T03:22:57.220Z,96728.84
2023-04-23T03:25:26.858Z,96718.31
2023-04-23T03:27:54.741Z,96726.22
2023-04-23T03:30:22.502Z,96729.09
2023-04-23T03:32:51.632Z,96717.84
2023-04-23T03:35:19.584Z,96723.22
2023-04-23T03:37:47.350Z,96718.19
2023-04-23T03:40:15.315Z,96720.22
2023-04-23T03:42:44.552Z,96721.88
2023-04-23T03:45:13.424Z,96723.69
2023-04-23T03:47:41.294Z,96718.63
2023-04-23T03:50:10.280Z,96717.00
2023-04-23T03:52:38.100Z,96717.00
2023-04-23T03:55:06.413Z,96712.78
2023-04-23T03:57:34.215Z,96705.63
2023-04-23T04:00:03.970Z,96712.56
2023-04-23T04:02:32.329Z,96708.84
2023-04-23T04:05:00.448Z,96708.63
2023-04-23T04:07:28.772Z,96714.72
2023-04-23T04:09:56.564Z,96721.88
2023-04-23T04:12:24.346Z,96726.19
2023-04-23T04:14:52.333Z,96732.41
2023-04-23T04:17:21.482Z,96735.78
2023-04-23T04:19:49.876Z,96737.66
2023-04-23T04:22:17.667Z,96736.94
2023-04-23T04:24:47.508Z,96735.25
2023-04-23T04:27:15.814Z,96731.09
2023-04-23T04:29:43.643Z,96730.00
2023-04-23T04:32:11.765Z,96705.56
2023-04-23T04:34:41.164Z,96732.03
2023-04-23T04:37:10.098Z,96725.09
2023-04-23T04:39:37.885Z,96727.13
2023-04-23T04:42:07.376Z,96727.84
2023-04-23T04:44:37.582Z,96686.16
2023-04-23T04:47:05.824Z,96727.34
2023-04-23T04:49:33.617Z,96733.56
2023-04-23T04:52:02.867Z,96728.41
2023-04-23T04:54:30.656Z,96725.06
2023-04-23T04:56:58.420Z,96732.13
2023-04-23T04:59:26.305Z,96727.56
2023-04-23T05:01:54.055Z,96727.91
2023-04-23T05:04:21.870Z,96721.22
2023-04-23T05:06:49.666Z,96731.59
2023-04-23T05:09:18.846Z,96735.22
2023-04-23T05:11:46.628Z,96738.06
2023-04-23T05:14:14.439Z,96731.34
2023-04-23T05:16:42.314Z,96727.16
2023-04-23T05:19:10.343Z,96726.22
2023-04-23T05:21:38.148Z,96726.09
2023-04-23T05:24:06.268Z,96738.31
2023-04-23T05:26:35.445Z,96735.41
2023-04-23T05:29:04.139Z,96739.91
2023-04-23T05:31:32.026Z,96746.97
2023-04-23T05:33:59.802Z,96745.19
2023-04-23T05:36:27.621Z,96748.28
2023-04-23T05:38:55.437Z,96750.72
2023-04-23T05:41:23.194Z,96744.25
2023-04-23T05:43:55.489Z,96751.00
2023-04-23T05:46:23.301Z,96748.84
2023-04-23T05:48:51.188Z,96749.44
2023-04-23T05:51:19.047Z,96753.53
2023-04-23T05:53:46.828Z,96760.97
2023-04-23T05:56:14.634Z,96759.91
2023-04-23T05:58:42.979Z,96748.78
2023-04-23T06:01:12.233Z,96757.75
2023-04-23T06:03:42.072Z,96750.59
2023-04-23T06:06:09.976Z,96749.16
2023-04-23T06:08:37.844Z,96742.44
2023-04-23T06:11:05.809Z,96743.63
2023-04-23T06:13:33.847Z,96752.25
2023-04-23T06:16:01.943Z,96748.88
2023-04-23T06:18:31.282Z,96755.47
2023-04-23T06:21:02.293Z,96764.94
2023-04-23T06:23:30.139Z,96768.63
2023-04-23T06:25:57.975Z,96773.09
2023-04-23T06:28:25.846Z,96763.16
2023-04-23T06:30:53.674Z,96772.16
2023-04-23T06:33:21.474Z,96763.53
2023-04-23T06:35:50.871Z,96756.38
2023-04-23T06:38:21.274Z,96759.94
2023-04-23T06:40:49.054Z,96757.47
2023-04-23T06:43:16.902Z,96764.50
2023-04-23T06:45:44.646Z,96768.09
2023-04-23T06:48:12.513Z,96755.88
2023-04-23T06:50:41.292Z,96754.31
2023-04-23T06:53:10.591Z,96742.47
2023-04-23T06:55:38.583Z,96730.44
2023-04-23T06:58:07.285Z,96732.03
2023-04-23T07:00:35.450Z,96736.22
2023-04-23T07:03:03.636Z,96733.25
2023-04-23T07:05:31.516Z,96731.06
2023-04-23T07:07:59.294Z,96722.34
2023-04-23T07:10:28.516Z,96715.47
2023-04-23T07:12:56.415Z,96708.03
2023-04-23T07:15:24.308Z,96707.28
2023-04-23T07:17:52.131Z,96718.66
2023-04-23T07:20:20.129Z,96725.28
2023-04-23T07:22:48.084Z,96731.88
2023-04-23T07:25:16.106Z,96732.03
2023-04-23T07:27:45.367Z,96728.91
2023-04-23T07:30:14.256Z,96719.19
2023-04-23T07:32:42.103Z,96723.63
2023-04-23T07:35:11.524Z,96730.34
2023-04-23T07:37:39.490Z,96733.25
2023-04-23T07:40:09.144Z,96736.84
2023-04-23T07:42:36.904Z,96736.56
2023-04-23T07:45:07.320Z,96740.69
2023-04-23T07:47:35.215Z,96733.94
2023-04-23T07:50:03.052Z,96738.41
2023-04-23T07:52:30.905Z,96735.16
2023-04-23T07:54:58.723Z,96728.56
2023-04-23T07:57:26.901Z,96717.56
2023-04-23T07:59:54.661Z,96724.34
2023-04-23T08:02:26.342Z,96722.41
2023-04-23T08:04:54.668Z,96726.47
2023-04-23T08:07:22.617Z,96733.16
2023-04-23T08:09:50.411Z,96729.09
2023-04-23T08:12:18.200Z,96723.31
2023-04-23T08:14:47.407Z,96719.78
2023-04-23T08:17:15.156Z,96725.22
2023-04-23T08:19:44.452Z,96730.72
2023-04-23T08:22:13.343Z,96712.50
2023-04-23T08:24:41.186Z,96711.97
2023-04-23T08:27:08.913Z,96713.06
2023-04-23T08:29:36.736Z,96692.16
2023-04-23T08:32:04.917Z,96710.41
2023-04-23T08:34:34.555Z,96707.28
2023-04-23T08:37:06.492Z,96706.25
2023-04-23T08:39:37.116Z,96705.50
2023-04-23T08:42:12.603Z,96706.91
2023-04-23T08:44:43.049Z,96702.78
2023-04-23T08:47:13.592Z,96709.22
2023-04-23T08:49:43.769Z,96710.47
2023-04-23T08:52:17.082Z,96713.31
2023-04-23T08:54:47.970Z,96710.47
2023-04-23T08:57:17.725Z,96685.97
2023-04-23T08:59:46.285Z,96703.22
2023-04-23T09:02:15.972Z,96705.88
2023-04-23T09:04:43.958Z,96701.19
2023-04-23T09:07:13.931Z,96701.09
2023-04-23T09:09:42.431Z,96690.72
2023-04-23T09:12:10.691Z,96689.41
2023-04-23T09:14:38.581Z,96683.94
2023-04-23T09:17:06.820Z,96687.25
2023-04-23T09:19:34.610Z,96691.16
2023-04-23T09:22:02.450Z,96688.13
2023-04-23T09:24:31.621Z,96681.47
2023-04-23T09:27:00.118Z,96660.00
2023-04-23T09:29:28.579Z,96686.66
2023-04-23T09:31:57.420Z,96687.63
2023-04-23T09:34:26.583Z,96673.03
2023-04-23T09:36:54.735Z,96669.47
2023-04-23T09:39:23.846Z,96661.44
2023-04-23T09:41:54.201Z,96662.53
2023-04-23T09:44:23.489Z,96660.09
2023-04-23T09:46:51.596Z,96661.94
2023-04-23T09:49:19.410Z,96662.34
2023-04-23T09:51:49.122Z,96666.16
2023-04-23T09:54:18.757Z,96672.31
2023-04-23T09:56:50.726Z,96651.84
2023-04-23T09:59:35.488Z,96663.19
2023-04-23T10:02:12.715Z,96660.66
2023-04-23T10:04:42.017Z,96647.06
2023-04-23T10:09:44.608Z,96661.28
2023-04-23T10:12:31.371Z,96634.84
2023-04-23T10:15:02.091Z,96632.34
2023-04-23T10:17:30.096Z,96648.19
2023-04-23T10:19:59.411Z,96647.59
2023-04-23T10:22:29.247Z,96643.69
2023-04-23T10:24:58.743Z,96639.34
2023-04-23T10:27:40.542Z,96652.66
2023-04-23T10:30:18.263Z,96647.97
2023-04-23T10:32:46.315Z,96640.53
2023-04-23T10:35:14.142Z,96646.66
2023-04-23T10:37:42.737Z,96648.03
2023-04-23T10:40:14.283Z,96636.50
2023-04-23T10:42:42.826Z,96631.50
2023-04-23T10:45:23.156Z,96634.63
2023-04-23T10:47:54.646Z,96602.13
2023-04-23T10:50:24.082Z,96631.00
2023-04-23T10:52:53.698Z,96615.19
2023-04-23T10:55:22.734Z,96615.97
2023-04-23T10:58:02.918Z,96611.81
2023-04-23T11:00:32.513Z,96616.03
2023-04-23T11:03:03.617Z,96609.25
2023-04-23T11:05:31.526Z,96603.84
2023-04-23T11:10:52.990Z,96604.63
2023-04-23T11:13:28.067Z,96590.66
2023-04-23T11:16:15.715Z,96587.53
2023-04-23T11:19:03.608Z,96584.78
2023-04-23T11:22:03.308Z,96594.13
2023-04-23T11:24:37.154Z,96583.63
2023-04-23T11:27:06.851Z,96582.59
2023-04-23T11:29:35.048Z,96579.88
2023-04-23T11:32:04.075Z,96579.19
2023-04-23T11:34:34.126Z,96575.03
2023-04-23T11:37:05.050Z,96584.19
2023-04-23T11:39:32.927Z,96583.88
2023-04-23T11:42:03.380Z,96563.97
2023-04-23T11:44:31.916Z,96557.75
2023-04-23T11:47:02.045Z,96538.34
2023-04-23T11:49:29.894Z,96558.22
2023-04-23T11:52:00.565Z,96565.50
2023-04-23T11:54:29.530Z,96548.16
2023-04-23T11:56:58.163Z,96545.78
2023-04-23T11:59:26.116Z,96532.06
2023-04-23T12:01:55.761Z,96536.31
2023-04-23T12:04:24.764Z,96525.03
2023-04-23T12:06:55.063Z,96524.72
2023-04-23T12:09:25.532Z,96515.75
2023-04-23T12:11:53.431Z,96532.88
2023-04-23T12:14:26.958Z,96527.91
2023-04-23T12:16:54.912Z,96523.91
2023-04-23T12:19:27.878Z,96520.53
2023-04-23T12:21:57.744Z,96525.28
2023-04-23T12:24:28.722Z,96515.00
2023-04-23T12:26:58.544Z,96510.84
2023-04-23T12:29:26.860Z,96519.28
2023-04-23T12:31:55.356Z,96506.66
2023-04-23T12:34:23.375Z,96505.66
2023-04-23T12:36:52.226Z,96504.34
2023-04-23T12:39:32.068Z,96496.34
2023-04-23T12:42:02.658Z,96486.91
2023-04-23T12:44:30.876Z,96477.94
2023-04-23T12:47:00.219Z,96462.66
2023-04-23T12:49:28.490Z,96471.44
2023-04-23T12:52:01.046Z,96463.91
2023-04-23T12:54:34.188Z,96468.47
2023-04-23T12:57:02.831Z,96464.91
2023-04-23T12:59:31.055Z,96467.38
2023-04-23T13:02:02.105Z,96460.41
2023-04-23T13:04:30.597Z,96452.75
2023-04-23T13:06:58.510Z,96455.13
2023-04-23T13:09:27.987Z,96460.03
2023-04-23T13:11:57.696Z,96448.50
2023-04-23T13:14:26.090Z,96444.50
2023-04-23T13:16:53.912Z,96424.25
2023-04-23T13:19:21.885Z,96435.66
2023-04-23T13:21:49.743Z,96432.31
2023-04-23T13:24:17.689Z,96420.72
2023-04-23T13:26:45.490Z,96425.84
2023-04-23T13:29:14.614Z,96410.06
2023-04-23T13:31:42.467Z,96415.94
2023-04-23T13:34:10.239Z,96410.59
2023-04-23T13:36:41.481Z,96414.81
2023-04-23T13:39:11.025Z,96407.03
2023-04-23T13:41:38.900Z,96397.06
2023-04-23T13:44:06.652Z,96407.44
2023-04-23T13:46:35.788Z,96405.00
2023-04-23T13:49:03.654Z,96393.84
2023-04-23T13:51:34.912Z,96393.88
2023-04-23T13:54:03.747Z,96379.66
2023-04-23T13:56:31.871Z,96388.63
2023-04-23T13:59:12.092Z,96385.47
2023-04-23T14:01:49.713Z,96382.50
2023-04-23T14:04:17.975Z,96397.28
2023-04-23T14:06:46.230Z,96377.34
2023-04-23T14:09:13.978Z,96371.34
2023-04-23T14:11:41.886Z,96364.19
2023-04-23T14:14:09.778Z,96365.88
2023-04-23T14:16:37.643Z,96350.44
2023-04-23T14:19:07.460Z,96347.84
2023-04-23T14:21:36.186Z,96356.81
2023-04-23T14:24:10.276Z,96345.88
2023-04-23T14:26:48.591Z,96340.94
2023-04-23T14:29:24.598Z,96334.94
2023-04-23T14:31:52.576Z,96325.34
2023-04-23T14:34:22.252Z,96311.69
2023-04-23T14:36:50.273Z,96304.75
2023-04-23T14:39:18.079Z,96309.41
2023-04-23T14:41:45.903Z,96304.19
2023-04-23T14:44:13.837Z,96301.53
2023-04-23T14:46:41.595Z,96292.94
2023-04-23T14:49:09.624Z,96287.13
2023-04-23T14:51:38.762Z,96281.13
2023-04-23T14:54:07.286Z,96278.59
2023-04-23T14:56:35.077Z,96281.78
2023-04-23T14:59:03.246Z,96269.00
2023-04-23T15:01:31.293Z,96271.78
2023-04-23T15:03:59.293Z,96269.63
2023-04-23T15:06:27.166Z,96271.78
2023-04-23T15:08:56.356Z,96268.88
2023-04-23T15:11:24.182Z,96260.44
2023-04-23T15:13:57.786Z,96267.13
2023-04-23T15:16:46.686Z,96257.13
2023-04-23T15:19:17.936Z,96258.81
2023-04-23T15:21:46.512Z,96240.53
2023-04-23T15:24:15.921Z,96251.88
2023-04-23T15:26:44.193Z,96248.53
2023-04-23T15:29:13.494Z,96244.56
2023-04-23T15:31:41.766Z,96242.91
2023-04-23T15:34:09.890Z,96236.56
2023-04-23T15:36:38.436Z,96224.91
2023-04-23T15:39:07.176Z,96242.16
2023-04-23T15:41:40.229Z,96240.53
2023-04-23T15:44:10.869Z,96243.00
2023-04-23T15:46:38.762Z,96237.53
2023-04-23T15:49:06.636Z,96225.41
2023-04-23T15:51:34.516Z,96238.84
2023-04-23T15:54:02.929Z,96250.44
2023-04-23T15:56:30.713Z,96254.72
2023-04-23T15:58:59.858Z,96273.09
2023-04-23T16:01:27.838Z,96273.22
2023-04-23T16:04:09.501Z,96303.91
2023-04-23T16:06:39.175Z,96320.63
2023-04-23T16:09:08.214Z,96335.38
2023-04-23T16:11:36.386Z,96338.13
2023-04-23T16:14:06.232Z,96346.53
2023-04-23T16:16:34.147Z,96326.78
2023-04-23T16:19:02.750Z,96314.66
2023-04-23T16:21:31.254Z,96269.66
2023-04-23T16:23:59.101Z,96310.22
2023-04-23T16:26:27.020Z,96306.47
2023-04-23T16:29:05.742Z,96294.97
2023-04-23T16:31:43.873Z,96284.56
2023-04-23T16:34:11.685Z,96283.19
2023-04-23T16:36:39.524Z,96289.84
2023-04-23T16:39:07.406Z,96266.78
2023-04-23T16:41:35.227Z,96267.34
2023-04-23T16:44:03.028Z,96262.22
2023-04-23T16:46:31.676Z,96259.69
2023-04-23T16:49:01.222Z,96256.19
2023-04-23T16:51:29.637Z,96249.91
2023-04-23T16:53:57.705Z,96252.84
2023-04-23T16:56:25.828Z,96248.09
2023-04-23T16:58:53.625Z,96234.50
2023-04-23T17:01:21.407Z,96239.09
2023-04-23T17:03:49.329Z,96244.06
2023-04-23T17:06:26.875Z,96231.16
2023-04-23T17:08:54.988Z,96222.13
2023-04-23T17:11:23.037Z,96234.66
2023-04-23T17:13:51.010Z,96235.75
2023-04-23T17:16:18.867Z,96232.28
2023-04-23T17:18:46.711Z,96239.53
2023-04-23T17:21:14.689Z,96218.72
2023-04-23T17:23:43.846Z,96221.63
2023-04-23T17:26:11.607Z,96226.50
2023-04-23T17:28:40.779Z,96221.09
2023-04-23T17:31:08.588Z,96218.97
2023-04-23T17:33:36.663Z,96215.13
2023-04-23T17:36:04.700Z,96224.03
2023-04-23T17:38:32.706Z,96227.31
2023-04-23T17:41:03.302Z,96224.28
2023-04-23T17:43:31.853Z,96230.97
2023-04-23T17:45:59.666Z,96229.28
2023-04-23T17:48:27.459Z,96222.31
2023-04-23T17:50:55.473Z,96233.00
2023-04-23T17:53:23.297Z,96238.03
2023-04-23T17:55:51.391Z,96222.56
2023-04-23T17:58:21.455Z,96220.91
2023-04-23T18:00:49.324Z,96212.31
2023-04-23T18:03:18.829Z,96213.16
2023-04-23T18:05:46.822Z,96211.75
2023-04-23T18:08:16.304Z,96203.28
2023-04-23T18:10:45.384Z,96199.00
2023-04-23T18:13:13.626Z,96193.97
2023-04-23T18:15:42.812Z,96189.72
2023-04-23T18:18:10.640Z,96197.75
2023-04-23T18:20:39.076Z,96178.47
2023-04-23T18:23:08.024Z,96178.72
2023-04-23T18:25:36.052Z,96172.91
2023-04-23T18:28:04.096Z,96178.88
2023-04-23T18:30:32.180Z,96158.84
2023-04-23T18:33:09.728Z,96181.06
2023-04-23T18:35:37.562Z,96185.38
2023-04-23T18:38:07.903Z,96191.59
2023-04-23T18:40:35.749Z,96188.41
2023-04-23T18:43:03.522Z,96200.59
2023-04-23T18:45:31.357Z,96186.31
2023-04-23T18:48:06.254Z,96199.06
2023-04-23T18:50:39.210Z,96196.16
2023-04-23T18:53:06.988Z,96198.34
2023-04-23T18:55:34.797Z,96199.59
2023-04-23T18:58:02.585Z,96207.91
2023-04-23T19:00:30.585Z,96214.97
2023-04-23T19:02:58.962Z,96216.91
2023-04-23T19:05:28.344Z,96211.34
2023-04-23T19:07:56.148Z,96220.75
2023-04-23T19:10:24.041Z,96221.72
2023-04-23T19:12:51.804Z,96222.13
2023-04-23T19:15:19.751Z,96226.69
2023-04-23T19:17:47.700Z,96229.56
2023-04-23T19:20:15.763Z,96233.31
2023-04-23T19:22:45.457Z,96242.03
2023-04-23T19:25:13.305Z,96237.63
2023-04-23T19:27:41.065Z,96250.63
2023-04-23T19:30:10.411Z,96256.06
2023-04-23T19:32:38.205Z,96260.31
2023-04-23T19:35:06.845Z,96264.50
2023-04-23T19:37:36.066Z,96264.25
2023-04-23T19:40:07.116Z,96260.25
2023-04-23T19:42:34.904Z,96256.78
2023-04-23T19:45:02.800Z,96266.59
2023-04-23T19:47:32.560Z,96262.59
2023-04-23T19:50:00.428Z,96274.31
2023-04-23T19:52:28.430Z,96265.03
2023-04-23T19:54:56.309Z,96251.97
2023-04-23T19:57:25.961Z,96268.00
2023-04-23T19:59:53.806Z,96264.94
2023-04-23T20:02:21.811Z,96264.22
2023-04-23T20:04:49.629Z,96261.41
2023-04-23T20:07:17.738Z,96265.59
2023-04-23T20:09:45.713Z,96268.06
2023-04-23T20:12:14.206Z,96259.69
2023-04-23T20:14:43.696Z,96260.34
2023-04-23T20:17:11.500Z,96267.78
2023-04-23T20:19:39.864Z,96269.97
2023-04-23T20:22:07.960Z,96265.91
2023-04-23T20:24:38.136Z,96249.69
2023-04-23T20:27:06.965Z,96254.22
2023-04-23T20:29:34.804Z,96247.69
2023-04-23T20:32:03.983Z,96246.16
2023-04-23T20:34:31.829Z,96241.00
2023-04-23T20:37:00.204Z,96241.59
2023-04-23T20:39:28.042Z,96229.88
2023-04-23T20:41:57.822Z,96232.50
2023-04-23T20:44:26.032Z,96219.22
2023-04-23T20:46:53.896Z,96219.66
2023-04-23T20:49:25.270Z,96209.03
2023-04-23T20:51:53.032Z,96211.66
2023-04-23T20:54:20.857Z,96161.09
2023-04-23T20:56:53.979Z,96199.19
2023-04-23T20:59:22.195Z,96208.75
2023-04-23T21:01:51.029Z,96195.69
2023-04-23T21:04:19.190Z,96218.72
2023-04-23T21:06:51.006Z,96217.88
2023-04-23T21:09:18.848Z,96228.28
2023-04-23T21:11:46.684Z,96223.25
2023-04-23T21:14:14.486Z,96229.88
2023-04-23T21:16:42.228Z,96233.69
2023-04-23T21:19:10.021Z,96240.19
2023-04-23T21:21:37.916Z,96231.97
2023-04-23T21:24:07.627Z,96233.03
2023-04-23T21:26:35.867Z,96225.41
2023-04-23T21:29:03.750Z,96230.19
2023-04-23T21:31:40.578Z,96234.75
2023-04-23T21:34:08.471Z,96242.66
2023-04-23T21:36:36.567Z,96245.13
2023-04-23T21:39:04.675Z,96240.72
2023-04-23T21:41:33.925Z,96251.22
2023-04-23T21:44:01.965Z,96258.03
2023-04-23T21:46:30.587Z,96249.31
2023-04-23T21:48:59.016Z,96254.56
2023-04-23T21:51:28.057Z,96250.38
2023-04-23T21:53:56.227Z,96258.41
2023-04-23T21:56:24.415Z,96247.19
2023-04-23T21:58:53.697Z,96257.81
2023-04-23T22:01:21.574Z,96251.16
2023-04-23T22:03:51.046Z,96250.44
2023-04-23T22:06:19.367Z,96245.56
2023-04-23T22:08:47.566Z,96244.13
2023-04-23T22:11:17.382Z,96244.38
2023-04-23T22:13:45.563Z,96245.34
2023-04-23T22:16:27.326Z,96242.09
2023-04-23T22:18:57.099Z,96250.81
2023-04-23T22:21:24.933Z,96248.47
2023-04-23T22:23:53.402Z,96253.84
2023-04-23T22:26:21.970Z,96262.94
2023-04-23T22:28:50.006Z,96256.94
2023-04-23T22:31:19.583Z,96255.28
2023-04-23T22:33:47.447Z,96263.38
2023-04-23T22:36:17.010Z,96250.41
2023-04-23T22:38:45.181Z,96254.09
2023-04-23T22:41:12.977Z,96249.91
2023-04-23T22:43:41.262Z,96246.81
2023-04-23T22:46:09.222Z,96245.97
2023-04-23T22:48:45.204Z,96252.34
2023-04-23T22:51:13.271Z,96235.75
2023-04-23T22:53:41.292Z,96243.72
2023-04-23T22:56:09.483Z,96243.97
2023-04-23T22:58:37.626Z,96237.88
2023-04-23T23:01:06.172Z,96237.88
2023-04-23T23:03:34.226Z,96245.91
2023-04-23T23:06:03.788Z,96242.28
2023-04-23T23:08:31.715Z,96234.41
2023-04-23T23:11:00.116Z,96231.66
2023-04-23T23:13:29.204Z,96238.38
2023-04-23T23:16:00.503Z,96250.66
2023-04-23T23:18:28.864Z,96249.00
2023-04-23T23:20:56.689Z,96234.91
2023-04-23T23:23:26.222Z,96234.28
2023-04-23T23:25:55.026Z,96225.34
2023-04-23T23:28:23.575Z,96229.66
2023-04-23T23:30:51.471Z,96220.09
2023-04-23T23:33:20.035Z,96225.81
2023-04-23T23:35:48.314Z,96227.38
2023-04-23T23:38:16.332Z,96216.75
2023-04-23T23:40:45.711Z,96215.06
2023-04-23T23:43:13.923Z,96205.41
2023-04-23T23:45:41.828Z,96192.41
2023-04-23T23:48:09.647Z,96195.47
2023-04-23T23:50:37.936Z,96194.63
2023-04-23T23:53:05.805Z,96192.97
2023-04-23T23:55:33.945Z,96205.97
2023-04-23T23:58:03.427Z,96204.31
